Time;durP1;ratioP1;P1;durP2;ratioP2;P2;SDS_P1;SDS_P2;PMS_P1;PMS_P2;Temp;Humidity;BMP_temperature;BMP_pressure;BME280_temperature;BME280_humidity;BME280_pressure;Samples;Min_cycle;Max_cycle;Signal;HPM_P1;HPM_P2
2022/02/05 00:02:56;;;;;;;7.00;4.63;;;22.90;37.20;;;;;;6060398;28;80876;-66
2022/02/05 00:06:02;;;;;;;8.52;4.55;;;22.90;37.20;;;;;;6062612;28;81134;-66
2022/02/05 00:20:01;;;;;;;8.55;4.80;;;22.90;37.40;;;;;;6022544;28;85105;-66
2022/02/05 00:42:42;;;;;;;6.43;3.95;;;22.80;37.70;;;;;;6060149;28;86153;-65
2022/02/05 00:45:45;;;;;;;7.88;3.85;;;22.80;37.80;;;;;;6054570;28;80905;-66
2022/02/05 00:48:46;;;;;;;7.00;3.47;;;22.80;37.90;;;;;;6061288;28;80555;-66
2022/02/05 00:51:55;;;;;;;4.88;3.30;;;22.80;37.80;;;;;;6059951;28;80457;-66
2022/02/05 00:55:04;;;;;;;7.22;3.40;;;22.80;37.90;;;;;;6063240;28;80395;-66
2022/02/05 00:58:06;;;;;;;7.03;3.40;;;22.80;38.10;;;;;;6057646;28;81504;-67
2022/02/05 01:01:06;;;;;;;4.97;3.58;;;22.80;38.10;;;;;;6060867;28;81068;-67
2022/02/05 01:04:07;;;;;;;5.50;3.50;;;22.70;37.80;;;;;;6063448;28;80550;-67
2022/02/05 01:07:07;;;;;;;5.53;3.38;;;22.80;37.90;;;;;;6057015;28;81238;-67
2022/02/05 01:10:08;;;;;;;5.22;3.17;;;22.80;37.80;;;;;;6081475;28;81519;-67
2022/02/05 01:13:11;;;;;;;3.53;2.83;;;22.80;37.80;;;;;;6063515;28;80902;-68
2022/02/05 01:16:21;;;;;;;4.38;3.13;;;22.80;37.70;;;;;;6055038;28;80500;-66
2022/02/05 01:22:37;;;;;;;5.95;3.05;;;22.80;37.70;;;;;;6060307;28;80419;-66
2022/02/05 01:25:44;;;;;;;4.63;2.88;;;22.80;37.60;;;;;;6065770;28;80562;-66
2022/02/05 01:28:49;;;;;;;5.82;2.88;;;22.70;37.50;;;;;;6049648;28;81959;-66
2022/02/05 01:31:55;;;;;;;4.57;3.20;;;22.70;37.60;;;;;;6066555;28;80491;-67
2022/02/05 01:55:14;;;;;;;3.28;2.50;;;22.70;37.90;;;;;;6062369;28;80909;-66
2022/02/05 02:11:19;;;;;;;5.35;3.35;;;22.70;38.30;;;;;;6061159;28;81730;-67
2022/02/05 02:14:43;;;;;;;3.88;2.90;;;22.70;38.10;;;;;;6064016;28;81425;-67
2022/02/05 02:18:14;;;;;;;4.00;2.97;;;22.70;38.20;;;;;;6067545;28;80027;-66
2022/02/05 02:24:21;;;;;;;6.55;2.92;;;22.70;38.40;;;;;;6053555;28;80534;-65
2022/02/05 02:27:33;;;;;;;3.22;2.60;;;22.70;38.40;;;;;;6065544;28;80769;-66
2022/02/05 02:30:39;;;;;;;3.88;2.30;;;22.70;38.10;;;;;;6063976;28;83769;-67
2022/02/05 02:33:45;;;;;;;4.97;2.88;;;22.60;38.00;;;;;;6066680;28;80945;-66
2022/02/05 02:42:59;;;;;;;4.78;2.88;;;22.70;38.00;;;;;;6065366;28;80787;-66
2022/02/05 02:45:59;;;;;;;4.82;2.58;;;22.70;38.10;;;;;;6074044;28;80595;-66
2022/02/05 02:49:02;;;;;;;3.60;2.58;;;22.70;38.20;;;;;;6059985;28;80464;-66
2022/02/05 02:59:01;;;;;;;5.72;2.60;;;22.70;38.10;;;;;;6051997;28;83070;-66
2022/02/05 03:02:11;;;;;;;3.22;2.50;;;22.70;38.00;;;;;;6062654;28;80938;-66
2022/02/05 03:05:11;;;;;;;3.45;2.15;;;22.70;38.10;;;;;;6066633;28;80126;-66
2022/02/05 03:08:12;;;;;;;4.28;2.42;;;22.70;38.60;;;;;;6050165;28;81147;-67
2022/02/05 03:11:13;;;;;;;3.40;2.47;;;22.70;38.60;;;;;;6050234;28;82198;-66
2022/02/05 03:14:14;;;;;;;3.53;2.13;;;22.70;38.90;;;;;;6055606;28;81303;-66
2022/02/05 03:17:16;;;;;;;3.50;2.35;;;22.70;38.90;;;;;;6061114;28;80630;-67
2022/02/05 03:20:17;;;;;;;3.85;2.30;;;22.70;39.10;;;;;;6063005;28;80404;-66
2022/02/05 03:23:17;;;;;;;3.33;2.40;;;22.60;39.70;;;;;;6064957;28;80533;-66
2022/02/05 03:26:18;;;;;;;3.90;2.40;;;22.60;39.00;;;;;;6064143;28;81536;-66
2022/02/05 03:29:18;;;;;;;2.55;2.20;;;22.70;39.00;;;;;;6060083;28;80739;-66
2022/02/05 03:32:19;;;;;;;4.10;2.65;;;22.60;38.80;;;;;;6066366;28;81634;-66
2022/02/05 03:35:20;;;;;;;2.70;2.40;;;22.60;38.90;;;;;;6065026;28;81443;-65
2022/02/05 03:38:20;;;;;;;2.95;2.22;;;22.60;38.70;;;;;;6077157;28;80609;-66
2022/02/05 03:41:21;;;;;;;3.55;2.78;;;22.60;38.80;;;;;;6063122;28;80625;-66
2022/02/05 03:44:21;;;;;;;3.83;2.50;;;22.60;38.90;;;;;;6052827;28;80494;-65
2022/02/05 03:47:22;;;;;;;3.78;2.13;;;22.60;38.90;;;;;;6059682;28;82976;-65
2022/02/05 03:50:23;;;;;;;4.70;2.35;;;22.60;38.80;;;;;;6055489;28;80068;-65
2022/02/05 03:53:23;;;;;;;3.33;2.50;;;22.60;38.30;;;;;;6050998;28;81004;-65
2022/02/05 03:56:24;;;;;;;3.00;2.25;;;22.70;38.30;;;;;;6063602;28;80489;-65
2022/02/05 03:59:24;;;;;;;2.53;2.25;;;22.60;38.30;;;;;;6065050;28;80498;-65
2022/02/05 04:02:25;;;;;;;2.97;2.05;;;22.60;38.20;;;;;;6048237;28;80662;-65
2022/02/05 04:05:25;;;;;;;3.42;2.60;;;22.60;38.30;;;;;;6062474;28;83324;-66
2022/02/05 04:08:26;;;;;;;4.35;2.10;;;22.60;38.20;;;;;;6048756;28;80887;-66
2022/02/05 04:11:32;;;;;;;2.78;2.10;;;22.60;38.00;;;;;;6057864;28;81102;-65
2022/02/05 04:17:52;;;;;;;2.90;2.10;;;22.60;37.90;;;;;;6060477;28;80603;-66
2022/02/05 04:20:52;;;;;;;2.88;2.08;;;22.70;37.50;;;;;;6063378;28;80427;-66
2022/02/05 04:23:53;;;;;;;2.85;2.15;;;22.70;37.40;;;;;;6055101;28;80307;-66
2022/02/05 04:26:54;;;;;;;2.35;2.03;;;22.70;37.20;;;;;;6063054;28;80395;-66
2022/02/05 04:29:54;;;;;;;2.75;1.85;;;22.70;37.80;;;;;;6063682;28;80408;-66
2022/02/05 04:32:55;;;;;;;2.33;1.63;;;22.70;37.20;;;;;;6063691;28;80868;-66
2022/02/05 04:35:55;;;;;;;3.65;2.38;;;22.80;37.20;;;;;;6060555;28;81490;-67
2022/02/05 04:39:00;;;;;;;1.75;1.65;;;22.80;37.20;;;;;;6058476;28;81458;-66
2022/02/05 04:42:11;;;;;;;2.20;1.85;;;22.80;37.20;;;;;;6057683;28;80432;-67
2022/02/05 04:52:05;;;;;;;2.22;1.65;;;22.90;37.20;;;;;;6068689;28;80535;-67
2022/02/05 04:55:44;;;;;;;1.70;1.60;;;22.90;37.20;;;;;;6066044;28;80534;-66
2022/02/05 05:02:11;;;;;;;2.28;1.90;;;23.00;37.30;;;;;;6065190;28;81598;-67
2022/02/05 05:21:17;;;;;;;2.97;2.10;;;23.10;37.30;;;;;;6053260;28;82128;-66
2022/02/05 05:24:17;;;;;;;2.28;1.90;;;23.10;37.40;;;;;;6061864;28;80722;-67
2022/02/05 05:27:18;;;;;;;2.22;1.80;;;23.10;37.30;;;;;;6055043;28;80229;-67
2022/02/05 05:30:18;;;;;;;3.67;2.22;;;23.10;37.40;;;;;;6040450;28;81628;-66
2022/02/05 05:33:19;;;;;;;3.15;1.77;;;23.10;37.40;;;;;;6056417;28;81288;-67
2022/02/05 05:36:19;;;;;;;2.00;1.75;;;23.20;37.90;;;;;;6057252;28;87471;-67
2022/02/05 05:39:20;;;;;;;3.10;2.25;;;23.20;37.80;;;;;;6059503;28;81065;-67
2022/02/05 05:42:24;;;;;;;3.42;1.80;;;23.20;37.80;;;;;;6053364;28;81594;-67
2022/02/05 05:48:45;;;;;;;2.63;1.80;;;23.20;38.00;;;;;;6060598;28;83194;-66
2022/02/05 05:51:46;;;;;;;1.90;1.52;;;23.20;38.10;;;;;;6065241;28;85670;-68
2022/02/05 05:54:47;;;;;;;3.40;2.25;;;23.20;38.20;;;;;;6062474;28;80623;-66
2022/02/05 05:57:47;;;;;;;2.60;1.80;;;23.20;38.80;;;;;;6065386;28;80919;-72
2022/02/05 06:00:49;;;;;;;3.88;2.28;;;23.30;39.20;;;;;;6060748;28;80599;-68
2022/02/05 06:03:49;;;;;;;2.05;1.52;;;23.30;39.50;;;;;;6069786;28;80202;-77
2022/02/05 06:06:50;;;;;;;2.75;1.90;;;23.30;39.70;;;;;;6052045;28;80759;-69
2022/02/05 06:09:50;;;;;;;1.67;1.58;;;23.30;39.50;;;;;;6050568;28;80784;-68
2022/02/05 06:12:51;;;;;;;2.47;1.17;;;23.20;40.60;;;;;;6067164;28;80896;-72
2022/02/05 06:15:54;;;;;;;1.70;1.02;;;23.20;42.00;;;;;;6065428;28;80834;-68
2022/02/05 06:18:55;;;;;;;5.18;1.02;;;23.20;43.20;;;;;;6065958;28;80357;-71
2022/02/05 06:21:56;;;;;;;3.55;1.30;;;23.20;43.90;;;;;;6065359;28;80520;-70
2022/02/05 06:24:56;;;;;;;1.00;0.90;;;23.20;44.80;;;;;;6075522;28;81300;-71
2022/02/05 06:27:57;;;;;;;1.38;0.93;;;23.10;45.10;;;;;;6064059;28;80564;-70
2022/02/05 06:30:58;;;;;;;2.08;0.90;;;23.10;45.80;;;;;;6060480;28;80896;-71
2022/02/05 06:33:58;;;;;;;1.10;1.00;;;23.10;46.30;;;;;;6055238;28;80652;-73
2022/02/05 06:36:59;;;;;;;1.20;0.85;;;23.10;46.70;;;;;;6067033;28;80956;-73
2022/02/05 06:39:59;;;;;;;6.22;1.05;;;23.10;46.90;;;;;;6066175;28;82115;-72
2022/02/05 06:43:00;;;;;;;1.63;1.08;;;23.10;47.30;;;;;;6054166;28;82023;-72
2022/02/05 06:46:00;;;;;;;5.40;1.00;;;23.00;48.00;;;;;;6066572;28;80697;-69
2022/02/05 06:49:01;;;;;;;1.25;0.90;;;23.00;48.50;;;;;;6059345;28;81271;-70
2022/02/05 06:52:02;;;;;;;0.90;0.80;;;23.00;48.60;;;;;;6063700;28;81612;-70
2022/02/05 06:55:03;;;;;;;1.38;0.93;;;23.00;49.00;;;;;;6062369;28;81871;-69
2022/02/05 06:58:03;;;;;;;0.90;0.80;;;23.00;49.10;;;;;;6067273;28;80195;-70
2022/02/05 07:01:04;;;;;;;1.20;0.70;;;23.00;49.80;;;;;;6063466;28;80310;-67
2022/02/05 07:04:05;;;;;;;0.80;0.80;;;23.00;50.20;;;;;;6063007;28;80646;-71
2022/02/05 07:07:06;;;;;;;0.77;0.77;;;23.00;50.90;;;;;;6060852;28;81697;-70
2022/02/05 07:10:07;;;;;;;5.10;0.80;;;23.00;50.10;;;;;;6059605;28;81703;-69
2022/02/05 07:19:26;;;;;;;7.63;0.90;;;23.20;49.40;;;;;;6064566;28;82654;-68
2022/02/05 07:31:09;;;;;;;1.85;1.23;;;;;;;;;;6242692;28;20045;-76
2022/02/05 07:34:09;;;;;;;1.93;1.23;;;;;;;;;;6288459;28;20053;-74
2022/02/05 07:37:09;;;;;;;1.20;0.90;;;;;;;;;;6245298;28;20535;-72
2022/02/05 07:40:09;;;;;;;1.13;0.80;;;;;;;;;;6274269;28;20706;-72
2022/02/05 07:50:33;;;;;;;1.85;1.10;;;23.30;49.60;;;;;;6238759;27;76217;-78
2022/02/05 07:53:33;;;;;;;16.13;1.25;;;23.20;49.10;;;;;;6222035;27;80449;-66
2022/02/05 07:56:34;;;;;;;1.27;1.13;;;23.20;49.20;;;;;;6181319;28;80563;-63
2022/02/05 07:59:34;;;;;;;1.75;1.20;;;23.00;48.70;;;;;;6179051;28;80749;-67
2022/02/05 08:02:35;;;;;;;6.57;1.65;;;23.10;48.50;;;;;;6178956;28;80575;-63
2022/02/05 08:05:35;;;;;;;2.47;1.40;;;23.10;48.40;;;;;;6176227;28;81389;-63
2022/02/05 08:08:36;;;;;;;3.97;1.95;;;23.20;48.10;;;;;;6177755;28;82246;-62
2022/02/05 08:11:41;;;;;;;1.60;1.50;;;23.20;47.30;;;;;;6178806;28;80428;-65
2022/02/05 08:14:46;;;;;;;4.93;1.80;;;23.20;47.60;;;;;;6177363;28;82040;-62
2022/02/05 08:17:47;;;;;;;3.38;1.83;;;23.30;47.10;;;;;;6177514;28;80712;-63
2022/02/05 08:20:47;;;;;;;2.97;1.67;;;23.30;47.40;;;;;;6179106;28;80532;-63
2022/02/05 08:23:48;;;;;;;2.35;1.80;;;23.40;47.40;;;;;;6175600;28;81647;-63
2022/02/05 08:26:48;;;;;;;3.45;1.70;;;23.40;47.10;;;;;;6176595;28;80829;-63
2022/02/05 08:29:55;;;;;;;6.18;1.50;;;23.40;47.30;;;;;;6177863;28;80814;-65
2022/02/05 08:32:58;;;;;;;3.33;1.80;;;23.30;47.30;;;;;;6176640;28;80805;-65
2022/02/05 08:35:59;;;;;;;3.30;1.55;;;23.40;47.10;;;;;;6178910;28;80552;-67
2022/02/05 08:38:59;;;;;;;2.13;1.40;;;23.40;46.60;;;;;;6174524;28;81589;-65
2022/02/05 08:42:00;;;;;;;2.38;1.80;;;23.30;46.40;;;;;;6171263;28;81967;-66
2022/02/05 08:45:00;;;;;;;2.42;1.92;;;23.40;46.60;;;;;;6177219;28;80522;-68
2022/02/05 08:48:01;;;;;;;4.20;2.17;;;23.40;46.70;;;;;;6167194;28;81392;-66
2022/02/05 08:51:01;;;;;;;3.05;1.90;;;23.40;46.50;;;;;;6175382;28;81063;-64
2022/02/05 08:54:02;;;;;;;6.55;1.90;;;23.40;46.30;;;;;;6197581;28;80719;-64
2022/02/05 08:57:02;;;;;;;4.95;2.05;;;23.40;46.20;;;;;;6200906;28;80366;-65
2022/02/05 09:00:09;;;;;;;3.80;2.05;;;23.40;46.10;;;;;;6193938;28;81734;-67
2022/02/05 09:03:14;;;;;;;3.10;1.60;;;23.30;46.00;;;;;;6184174;28;80376;-63
2022/02/05 09:06:15;;;;;;;2.72;1.60;;;23.30;46.00;;;;;;6186338;28;81242;-63
2022/02/05 09:09:38;;;;;;;3.53;1.80;;;23.30;46.00;;;;;;6185336;28;80299;-65
2022/02/05 09:15:39;;;;;;;2.63;1.70;;;23.20;45.90;;;;;;6160825;28;80297;-64
2022/02/05 09:18:39;;;;;;;4.15;1.77;;;23.20;46.10;;;;;;6156946;28;81059;-63
2022/02/05 09:21:40;;;;;;;2.33;1.88;;;23.20;45.80;;;;;;6151118;28;80402;-62
2022/02/05 09:24:41;;;;;;;3.30;2.00;;;23.20;45.70;;;;;;6158048;28;81346;-63
2022/02/05 09:27:45;;;;;;;3.80;1.92;;;23.10;45.60;;;;;;6159017;28;80316;-65
2022/02/05 09:31:01;;;;;;;2.60;1.50;;;23.10;45.50;;;;;;6199577;28;82180;-63
2022/02/05 09:34:04;;;;;;;2.08;1.73;;;23.10;45.60;;;;;;6184897;28;80495;-62
2022/02/05 09:37:05;;;;;;;4.20;1.75;;;23.10;45.50;;;;;;6177658;28;80742;-62
2022/02/05 09:40:05;;;;;;;1.75;1.58;;;23.10;45.60;;;;;;6185793;28;80981;-62
2022/02/05 09:43:06;;;;;;;3.00;1.80;;;23.10;45.60;;;;;;6184459;28;80626;-63
2022/02/05 09:46:06;;;;;;;2.53;1.63;;;23.10;45.60;;;;;;6185721;28;80777;-61
2022/02/05 09:49:07;;;;;;;3.38;1.58;;;23.10;45.80;;;;;;6180944;28;80388;-62
2022/02/05 09:52:20;;;;;;;3.78;1.83;;;23.10;46.40;;;;;;6178903;28;80380;-63
2022/02/05 09:55:20;;;;;;;8.15;2.20;;;23.10;45.70;;;;;;6183452;28;80455;-63
2022/02/05 09:58:21;;;;;;;3.00;1.63;;;23.10;46.50;;;;;;6181948;28;80602;-63
2022/02/05 10:01:28;;;;;;;2.75;1.80;;;23.10;46.30;;;;;;6184958;28;80439;-63
2022/02/05 10:04:33;;;;;;;4.78;1.85;;;23.10;46.70;;;;;;6184864;28;81505;-61
2022/02/05 10:07:34;;;;;;;4.88;1.70;;;23.10;46.50;;;;;;6191429;28;81324;-61
2022/02/05 10:10:34;;;;;;;3.33;1.58;;;23.10;46.10;;;;;;6188385;28;80410;-62
2022/02/05 10:13:35;;;;;;;4.60;1.67;;;23.10;45.60;;;;;;6182765;28;80479;-61
2022/02/05 10:16:36;;;;;;;3.95;1.83;;;23.10;45.20;;;;;;6182453;28;82136;-62
2022/02/05 10:19:36;;;;;;;2.40;1.48;;;23.10;44.80;;;;;;6193883;28;82696;-62
2022/02/05 10:22:37;;;;;;;3.47;1.45;;;23.10;45.00;;;;;;6182527;28;81415;-61
2022/02/05 10:25:38;;;;;;;2.25;1.50;;;23.10;44.60;;;;;;6182394;28;80231;-61
2022/02/05 10:28:39;;;;;;;1.80;1.50;;;23.10;44.10;;;;;;6184020;28;80224;-62
2022/02/05 10:31:39;;;;;;;3.85;1.98;;;23.00;44.20;;;;;;6181085;28;80287;-62
2022/02/05 10:34:40;;;;;;;3.03;1.60;;;23.00;44.00;;;;;;6185264;28;80887;-62
2022/02/05 10:37:40;;;;;;;60.17;29.05;;;23.00;43.60;;;;;;6182765;28;81520;-62
2022/02/05 10:40:45;;;;;;;222.00;101.13;;;23.10;44.00;;;;;;6169699;28;82922;-62
2022/02/05 10:43:45;;;;;;;183.88;88.72;;;23.10;45.10;;;;;;6153370;28;85589;-62
2022/02/05 10:46:46;;;;;;;160.73;78.45;;;23.00;44.30;;;;;;6156434;28;85312;-62
2022/02/05 10:49:49;;;;;;;147.82;67.50;;;23.10;44.00;;;;;;6149393;28;84651;-63
2022/02/05 10:52:50;;;;;;;144.55;57.00;;;23.10;43.50;;;;;;6151386;28;84047;-62
2022/02/05 11:08:36;;;;;;;51.67;24.25;;;23.20;41.70;;;;;;6159085;28;82999;-64
2022/02/05 11:12:20;;;;;;;42.38;19.42;;;23.30;41.30;;;;;;6167843;28;83071;-64
2022/02/05 11:15:17;;;;;;;38.60;16.65;;;23.30;41.40;;;;;;6159031;28;83059;-66
2022/02/05 11:21:37;;;;;;;26.40;12.10;;;23.40;41.80;;;;;;6168247;28;87573;-62
2022/02/05 11:24:38;;;;;;;27.83;12.65;;;23.40;41.70;;;;;;6180295;28;83041;-63
2022/02/05 11:27:39;;;;;;;20.90;10.50;;;23.40;41.90;;;;;;6162264;28;83321;-64
2022/02/05 11:30:42;;;;;;;20.02;9.40;;;23.40;42.10;;;;;;6162124;28;83376;-63
2022/02/05 11:33:43;;;;;;;14.75;8.10;;;23.40;42.00;;;;;;6156979;28;82856;-63
2022/02/05 11:36:44;;;;;;;14.35;7.40;;;23.40;42.00;;;;;;6157186;28;80662;-62
2022/02/05 11:39:45;;;;;;;16.88;7.53;;;23.40;42.00;;;;;;6157561;28;81771;-63
2022/02/05 11:42:45;;;;;;;14.90;6.57;;;23.40;41.80;;;;;;6145689;28;80688;-66
2022/02/05 11:45:46;;;;;;;13.52;5.85;;;23.40;41.60;;;;;;6156338;28;80860;-64
2022/02/05 11:48:46;;;;;;;12.77;4.95;;;23.40;41.50;;;;;;6160736;28;80708;-64
2022/02/05 11:51:47;;;;;;;8.07;4.70;;;23.40;41.30;;;;;;6158443;28;80868;-64
2022/02/05 11:54:48;;;;;;;6.80;3.85;;;23.40;40.90;;;;;;6163983;28;80713;-64
2022/02/05 11:57:49;;;;;;;7.35;3.95;;;23.40;40.20;;;;;;6157103;28;80818;-63
2022/02/05 12:00:51;;;;;;;13.35;4.72;;;23.40;40.90;;;;;;6183771;28;80844;-62
2022/02/05 12:03:52;;;;;;;9.25;3.72;;;23.40;40.30;;;;;;6183657;28;80720;-63
2022/02/05 12:06:52;;;;;;;7.40;3.75;;;23.40;40.30;;;;;;6183458;28;80546;-63
2022/02/05 12:09:53;;;;;;;6.22;3.53;;;23.40;40.60;;;;;;6181850;28;80078;-63
2022/02/05 12:12:53;;;;;;;6.57;3.20;;;23.40;41.10;;;;;;6180069;28;80730;-62
2022/02/05 12:15:54;;;;;;;11.20;4.20;;;23.40;40.90;;;;;;6182420;28;80260;-62
2022/02/05 12:18:55;;;;;;;6.45;3.70;;;23.50;41.80;;;;;;6178282;28;80398;-66
2022/02/05 12:21:56;;;;;;;10.15;3.75;;;23.50;41.60;;;;;;6180236;28;80170;-63
2022/02/05 12:25:03;;;;;;;5.65;3.30;;;23.60;40.80;;;;;;6183457;28;81021;-63
2022/02/05 12:28:03;;;;;;;7.22;3.38;;;23.60;40.80;;;;;;6181147;28;80905;-63
2022/02/05 12:31:04;;;;;;;8.30;3.63;;;23.70;41.00;;;;;;6183204;28;81680;-63
2022/02/05 12:34:04;;;;;;;7.93;3.85;;;23.90;41.40;;;;;;6180625;28;81303;-62
2022/02/05 12:37:05;;;;;;;6.35;3.13;;;23.90;41.50;;;;;;6185621;28;80368;-62
2022/02/05 12:40:05;;;;;;;8.98;3.55;;;24.00;42.00;;;;;;6184207;28;80896;-63
2022/02/05 12:43:06;;;;;;;7.70;3.53;;;24.00;41.60;;;;;;6186943;28;81041;-63
2022/02/05 12:46:11;;;;;;;11.48;3.92;;;23.90;41.30;;;;;;6181176;28;80302;-63
2022/02/05 12:49:25;;;;;;;12.73;3.67;;;23.90;41.30;;;;;;6184053;28;81567;-64
2022/02/05 12:52:26;;;;;;;5.90;3.30;;;23.80;40.70;;;;;;6179101;28;80320;-66
2022/02/05 12:55:27;;;;;;;7.30;3.70;;;23.90;40.40;;;;;;6186860;28;81172;-64
2022/02/05 12:58:28;;;;;;;7.65;3.05;;;24.00;39.60;;;;;;6186032;28;80221;-63
2022/02/05 13:01:28;;;;;;;7.75;3.55;;;24.10;39.10;;;;;;6185510;28;85010;-65
2022/02/05 13:04:29;;;;;;;4.25;2.72;;;24.20;38.70;;;;;;6182140;28;80353;-62
2022/02/05 13:07:29;;;;;;;5.57;2.83;;;24.30;38.50;;;;;;6172937;28;81016;-60
2022/02/05 13:10:32;;;;;;;6.32;3.00;;;24.30;38.20;;;;;;6157634;28;80856;-62
2022/02/05 13:13:36;;;;;;;7.07;2.95;;;24.30;38.20;;;;;;6159739;28;82161;-61
2022/02/05 13:16:37;;;;;;;6.50;2.90;;;24.20;38.10;;;;;;6156338;28;80787;-62
2022/02/05 13:27:13;;;;;;;6.75;2.90;;;24.20;38.20;;;;;;6157987;28;81142;-63
2022/02/05 13:29:57;;;;;;;7.10;3.05;;;24.20;38.30;;;;;;6138690;28;80874;-63
2022/02/05 13:36:22;;;;;;;5.55;3.22;;;24.20;37.50;;;;;;6149594;28;83707;-64
2022/02/05 13:42:24;;;;;;;4.60;2.95;;;24.10;38.00;;;;;;6177039;28;83109;-64
2022/02/05 13:45:32;;;;;;;7.10;3.53;;;24.10;37.50;;;;;;6155677;28;81171;-62
2022/02/05 13:48:33;;;;;;;8.88;3.78;;;24.10;37.30;;;;;;6150668;28;85103;-63
2022/02/05 13:51:33;;;;;;;7.00;3.45;;;24.10;37.50;;;;;;6159721;28;80491;-66
2022/02/05 13:54:34;;;;;;;5.88;3.42;;;24.10;37.40;;;;;;6162374;28;80410;-63
2022/02/05 13:57:34;;;;;;;9.98;3.85;;;24.10;37.50;;;;;;6169881;28;83847;-63
2022/02/05 14:00:35;;;;;;;6.13;3.40;;;24.00;37.60;;;;;;6155362;28;80553;-61
2022/02/05 14:03:36;;;;;;;6.85;3.55;;;23.90;37.40;;;;;;6163379;28;80217;-65
2022/02/05 14:06:36;;;;;;;8.82;3.97;;;23.90;37.30;;;;;;6186235;28;80575;-63
2022/02/05 14:09:37;;;;;;;11.55;4.45;;;23.90;37.60;;;;;;6178855;28;80980;-64
2022/02/05 14:12:37;;;;;;;9.30;4.45;;;23.80;37.80;;;;;;6185198;28;80318;-64
2022/02/05 14:15:38;;;;;;;11.77;4.78;;;23.80;38.20;;;;;;6185550;28;80880;-63
2022/02/05 14:18:38;;;;;;;7.63;4.15;;;23.70;38.20;;;;;;6184951;28;80351;-64
2022/02/05 14:21:42;;;;;;;9.77;4.10;;;23.70;39.30;;;;;;6184286;28;80489;-63
2022/02/05 14:24:43;;;;;;;11.57;4.65;;;23.70;38.60;;;;;;6183463;28;81235;-60
2022/02/05 14:27:43;;;;;;;13.45;4.63;;;23.70;38.40;;;;;;6179004;28;80869;-63
2022/02/05 14:31:02;;;;;;;6.30;3.38;;;23.70;38.80;;;;;;6185032;28;82114;-62
2022/02/05 14:34:16;;;;;;;7.00;3.42;;;23.60;38.90;;;;;;6182962;28;81812;-65
2022/02/05 14:40:47;;;;;;;6.40;3.45;;;23.50;37.20;;;;;;6184104;28;80517;-64
2022/02/05 14:43:47;;;;;;;6.60;3.20;;;23.40;36.90;;;;;;6184530;28;80338;-64
2022/02/05 14:46:48;;;;;;;6.97;3.30;;;23.30;36.30;;;;;;6183210;28;80867;-63
2022/02/05 14:49:48;;;;;;;6.00;2.85;;;23.30;35.90;;;;;;6182790;28;81290;-64
2022/02/05 14:52:49;;;;;;;7.60;3.30;;;23.20;35.60;;;;;;6185832;28;80929;-64
2022/02/05 14:55:49;;;;;;;7.57;3.30;;;23.20;35.10;;;;;;6177365;28;81465;-63
2022/02/05 14:58:50;;;;;;;7.15;3.40;;;23.20;35.30;;;;;;6176294;28;80810;-61
2022/02/05 15:01:54;;;;;;;5.80;2.67;;;23.20;35.70;;;;;;6196110;28;81564;-63
2022/02/05 15:04:54;;;;;;;5.40;3.08;;;23.20;35.70;;;;;;6178561;28;85035;-63
2022/02/05 15:07:55;;;;;;;5.15;2.80;;;23.20;36.10;;;;;;6180577;28;81289;-65
2022/02/05 15:10:55;;;;;;;7.38;2.90;;;23.20;36.20;;;;;;6181596;28;80691;-65
2022/02/05 15:13:57;;;;;;;5.45;2.90;;;23.10;36.10;;;;;;6179857;28;81338;-63
2022/02/05 15:16:57;;;;;;;5.40;2.80;;;23.10;36.30;;;;;;6176330;28;80975;-65
2022/02/05 15:19:58;;;;;;;4.97;2.80;;;23.10;36.50;;;;;;6180151;28;80622;-63
2022/02/05 15:22:59;;;;;;;5.38;2.75;;;23.10;36.60;;;;;;6181836;28;80649;-63
2022/02/05 15:26:04;;;;;;;4.45;2.72;;;23.10;36.70;;;;;;6180583;28;81188;-62
2022/02/05 15:29:04;;;;;;;5.13;2.65;;;23.10;37.10;;;;;;6183548;28;81029;-64
2022/02/05 15:32:05;;;;;;;3.58;2.75;;;23.10;37.10;;;;;;6181005;28;80453;-64
2022/02/05 15:35:06;;;;;;;5.07;3.13;;;23.10;37.10;;;;;;6181393;28;80594;-65
2022/02/05 15:38:13;;;;;;;4.97;3.15;;;23.10;37.30;;;;;;6180415;28;80974;-64
2022/02/05 15:44:14;;;;;;;5.85;3.33;;;23.10;37.10;;;;;;6180525;28;80392;-65
2022/02/05 15:47:15;;;;;;;8.07;3.42;;;23.10;37.00;;;;;;6183340;28;80270;-65
2022/02/05 15:50:15;;;;;;;8.82;4.32;;;23.10;37.30;;;;;;6182661;28;80415;-66
2022/02/05 15:53:16;;;;;;;14.20;8.07;;;23.10;37.60;;;;;;6183679;28;80608;-65
2022/02/05 16:02:44;;;;;;;28.45;18.05;;;23.10;39.20;;;;;;6156753;28;84939;-65
2022/02/05 16:05:45;;;;;;;32.53;19.63;;;23.10;39.70;;;;;;6156786;28;83362;-64
2022/02/05 16:08:45;;;;;;;29.27;19.25;;;23.10;40.10;;;;;;6142357;28;83666;-64
2022/02/05 16:11:46;;;;;;;33.03;20.35;;;23.10;40.30;;;;;;6159485;28;83880;-63
2022/02/05 16:14:46;;;;;;;40.75;25.38;;;23.10;40.20;;;;;;6184032;28;85739;-64
2022/02/05 16:17:48;;;;;;;34.20;23.40;;;23.10;42.70;;;;;;6182276;28;84955;-65
2022/02/05 16:20:49;;;;;;;38.47;25.20;;;23.10;42.30;;;;;;6182533;28;82981;-64
2022/02/05 16:23:51;;;;;;;46.00;29.83;;;23.20;42.60;;;;;;6185519;28;83507;-65
2022/02/05 16:26:52;;;;;;;41.92;29.92;;;23.20;42.90;;;;;;6180505;28;84176;-65
2022/02/05 16:29:52;;;;;;;41.13;25.63;;;23.20;42.20;;;;;;6178927;28;83452;-64
2022/02/05 16:32:56;;;;;;;35.53;23.00;;;23.20;41.30;;;;;;6168084;28;84114;-64
2022/02/05 16:36:06;;;;;;;31.02;21.23;;;23.20;40.80;;;;;;6175836;28;83667;-65
2022/02/05 16:39:06;;;;;;;38.45;21.48;;;23.20;40.30;;;;;;6175654;28;84658;-64
2022/02/05 16:42:07;;;;;;;30.10;18.98;;;23.20;40.00;;;;;;6183635;28;83337;-65
2022/02/05 16:45:07;;;;;;;123.28;63.45;;;23.20;39.50;;;;;;6183235;28;86165;-64
2022/02/05 16:48:08;;;;;;;237.27;119.50;;;23.20;39.40;;;;;;6178718;28;84314;-65
2022/02/05 16:51:12;;;;;;;172.57;84.82;;;23.30;39.30;;;;;;6177630;28;85878;-65
2022/02/05 16:54:14;;;;;;;140.52;73.63;;;23.30;39.20;;;;;;6181649;28;84962;-63
2022/02/05 16:57:14;;;;;;;134.23;64.30;;;23.30;38.80;;;;;;6182805;28;82966;-65
2022/02/05 17:00:15;;;;;;;115.18;57.45;;;23.30;38.80;;;;;;6177151;28;83362;-64
2022/02/05 17:03:16;;;;;;;102.75;50.70;;;23.30;38.60;;;;;;6182699;28;83176;-64
2022/02/05 17:06:16;;;;;;;81.70;41.40;;;23.40;38.50;;;;;;6184697;28;83299;-66
2022/02/05 17:09:17;;;;;;;84.93;41.40;;;23.40;38.60;;;;;;6183441;28;83132;-66
2022/02/05 17:12:17;;;;;;;70.18;37.35;;;23.40;38.40;;;;;;6178247;28;83937;-62
2022/02/05 17:15:18;;;;;;;66.40;35.05;;;23.40;38.40;;;;;;6180256;28;83826;-64
2022/02/05 17:18:23;;;;;;;63.47;30.60;;;23.40;38.50;;;;;;6171339;28;84871;-65
2022/02/05 17:21:23;;;;;;;53.92;28.50;;;23.40;38.50;;;;;;6178332;28;83311;-64
2022/02/05 17:24:24;;;;;;;52.38;27.25;;;23.40;38.20;;;;;;6185107;28;83458;-67
2022/02/05 17:27:25;;;;;;;48.45;25.15;;;23.40;38.10;;;;;;6184035;28;83565;-65
2022/02/05 17:30:26;;;;;;;43.50;24.15;;;23.40;37.90;;;;;;6181898;28;83218;-62
2022/02/05 17:33:26;;;;;;;40.40;21.23;;;23.40;38.00;;;;;;6183089;28;83163;-64
2022/02/05 17:36:27;;;;;;;40.70;20.00;;;23.40;38.70;;;;;;6183468;28;83182;-63
2022/02/05 17:39:27;;;;;;;40.63;20.55;;;23.40;38.70;;;;;;6182095;28;84281;-64
2022/02/05 17:42:30;;;;;;;35.40;17.85;;;23.40;38.50;;;;;;6171019;28;85022;-65
2022/02/05 17:45:30;;;;;;;33.88;17.30;;;23.40;38.30;;;;;;6182104;28;87843;-65
2022/02/05 17:48:31;;;;;;;30.45;15.82;;;23.40;38.60;;;;;;6157716;28;83138;-64
2022/02/05 17:51:31;;;;;;;29.27;15.73;;;23.40;38.50;;;;;;6154491;28;83669;-64
2022/02/05 17:54:32;;;;;;;25.58;13.88;;;23.40;38.60;;;;;;6156017;28;84276;-64
2022/02/05 17:57:34;;;;;;;25.98;15.20;;;23.40;38.50;;;;;;6154345;28;83524;-65
2022/02/05 18:00:38;;;;;;;22.05;12.20;;;23.40;38.50;;;;;;6172404;28;83560;-64
2022/02/05 18:03:42;;;;;;;23.25;12.93;;;23.40;38.30;;;;;;6157613;28;84343;-64
2022/02/05 18:06:48;;;;;;;19.52;11.88;;;23.40;39.00;;;;;;6154970;28;83004;-66
2022/02/05 18:10:06;;;;;;;22.70;12.50;;;23.40;39.70;;;;;;6157512;28;83016;-64
2022/02/05 18:13:25;;;;;;;27.02;11.57;;;23.40;39.20;;;;;;6158628;28;84025;-64
2022/02/05 18:16:25;;;;;;;21.25;10.70;;;23.40;39.20;;;;;;6156706;28;84316;-65
2022/02/05 18:19:28;;;;;;;17.40;9.57;;;23.40;38.90;;;;;;6157248;28;83859;-68
2022/02/05 18:22:28;;;;;;;17.95;10.60;;;23.40;38.70;;;;;;6158908;28;82921;-64
2022/02/05 18:25:30;;;;;;;18.45;9.95;;;23.50;38.50;;;;;;6153137;28;83202;-63
2022/02/05 18:28:30;;;;;;;20.20;9.75;;;23.50;38.80;;;;;;6160266;28;84870;-64
2022/02/05 18:31:32;;;;;;;17.52;10.05;;;23.50;38.90;;;;;;6161668;28;80346;-64
2022/02/05 18:34:33;;;;;;;17.02;9.13;;;23.50;39.20;;;;;;6156333;28;83028;-62
2022/02/05 18:37:33;;;;;;;18.67;9.55;;;23.50;39.00;;;;;;6160362;28;83424;-64
2022/02/05 18:40:34;;;;;;;15.88;8.80;;;23.50;38.90;;;;;;6159677;28;80526;-64
2022/02/05 18:43:34;;;;;;;15.18;8.77;;;23.50;38.60;;;;;;6146237;28;80602;-64
2022/02/05 18:46:38;;;;;;;17.90;8.27;;;23.50;38.30;;;;;;6146475;28;80901;-64
2022/02/05 18:49:39;;;;;;;18.20;9.07;;;23.40;38.20;;;;;;6160231;28;80562;-63